桃園國際機場 - 塔臺(二站)

METAR RCTP 231830Z 12006KT 080V150 9999 FEW020 20/17 Q1021 NOSIG RMK A3015=

站台狀態:Online
最後更新:2020-02-24 02:30:02